POGODA: Poland

Lotnisko: Warszawa-Okecie

METAR KOD: EPWA


METAR: EPWA 310430Z 31006KT 7000 BKN007 05/04 Q1027 NOSIG


BLOK
Pogoda METAR
310430Z
Dzien: 31, Godzina: 04:30 UTC.
31006KT
Wiatr z kierunku 310, o predkosci 11 km/h
7000
Widzialnosc pozioma 7000 m.
BKN007
5/8 - 7/8 pokrycia nieba, chmurami o podstawie: 210 metrow
05/04
Temperatura: powietrze 5°C, punkt rosy 4°C . Wilgotnosc wzgledna 80 %
Q1027
Cisnienie: 1027 hPa
NOSIG
Pogoda bedzie bez zmian

Pogoda na innym lotnisku

Pogoda Gdansk-Rebiechowo WEATHER Poland  
Pogoda Katowice WEATHER Poland  
Pogoda Krakow WEATHER Poland  
Pogoda Poznan WEATHER Poland  
Pogoda Rzeszow-Jasionka WEATHER Poland  
Pogoda Szczecin WEATHER Poland  
Pogoda Warszawa-Okecie WEATHER Poland  
Pogoda Wroclaw Ii WEATHER Poland  

Pogoda w inny kraju

Strona startowa

(C) by GREGOR 2007
Ogłoszenia Towarzyskie